Página principal
METAR-TAF:

METAR-TAF

Aeroportos :

Kulob, Tadjiquistão

latitude: 37-59-18N, longitude: 069-48-18E, altura: 699 m

Observação actual do tempo

O boletim foi feito há 31 minutos, às 10:00 UTC
Vento 4 kt com direcção variável
Temperatura 20°C
Humidade 32%
Pressão 1017 hPa
Visibilidade 10 km ou mais

METAR: UTDK 221000Z VRB02MPS 9999 NSC 20/03 Q1017 R01/09//70 RMK QFE705/0940

Hora: 15:31 (10:31 UTC)

Previsão

O boletim foi feito há 1 hora e 31 minutos, às 09:00 UTC
Previsão válida de 22 às 10 UTC a 22 às 19 UTC
Vento 4 kt com direcção variável
Visibilidade: 6000 m
Nuvens dispersasa uma altura de 5000 ft, Cumulonimbus.
Nuvens fragmentadasa uma altura de 10000 ft
Probabilidade 40% :
Temporariamente
de 22 às 07 UTC a 22 às 16 UTC
Vento 14 kt com direcção variável com rajadas de 23 kt
Visibilidade: 3100 m
trovoada, chuva fraca, neblina

TAF: UTDK 220900Z 2210/2219 VRB02MPS 6000 SCT050CB BKN100 PROB40 TEMPO 2207/2216 VRB07G12MPS 3100 -TSRA BR

Observações e previsões do tempo de mais de 4000 aeroportos (mensagens METAR e TAF).

As estações disponíveis são os pontos amarelos e vermelhos sobre o mapa.

Mova o rato sobre o mapa para ver o nome da estação.

Depois clique no ponto para visualizar as observações e previsões meteorológicas.

Para alterar o mapa : clique nos botões verdes com uma cruz preta para aumentar o zoom; no botão verde com uma pitada de zoom; ou nas setas verdes para mapas adjacentes.


METAR-TAF: